createdAt,value
2018-08-30T00:00:19.143Z,11.07
2018-08-30T00:02:47.640Z,10.43
2018-08-30T00:05:16.109Z,12.83
2018-08-30T00:07:44.593Z,12.47
2018-08-30T00:10:13.035Z,12.20
2018-08-30T00:12:41.564Z,12.13
2018-08-30T00:15:09.995Z,12.83
2018-08-30T00:17:38.456Z,12.50
2018-08-30T00:20:06.914Z,13.50
2018-08-30T00:22:35.377Z,11.00
2018-08-30T00:25:03.864Z,13.80
2018-08-30T00:27:32.303Z,11.63
2018-08-30T00:30:00.792Z,11.50
2018-08-30T00:32:29.213Z,11.97
2018-08-30T00:34:57.656Z,11.73
2018-08-30T00:37:26.099Z,11.13
2018-08-30T00:39:54.599Z,10.83
2018-08-30T00:42:23.044Z,12.10
2018-08-30T00:44:51.540Z,11.53
2018-08-30T00:47:21.285Z,11.13
2018-08-30T00:49:50.616Z,10.53
2018-08-30T00:52:19.581Z,10.37
2018-08-30T00:54:48.069Z,9.30
2018-08-30T00:57:17.060Z,8.70
2018-08-30T00:59:45.520Z,8.10
2018-08-30T01:02:14.000Z,8.17
2018-08-30T01:04:42.683Z,7.33
2018-08-30T01:07:11.167Z,8.83
2018-08-30T01:09:39.624Z,8.00
2018-08-30T01:12:08.092Z,7.80
2018-08-30T01:14:36.581Z,7.77
2018-08-30T01:17:05.053Z,8.50
2018-08-30T01:19:33.569Z,8.17
2018-08-30T01:22:02.041Z,7.47
2018-08-30T01:24:30.599Z,8.20
2018-08-30T01:26:59.048Z,7.97
2018-08-30T01:29:27.515Z,7.80
2018-08-30T01:31:56.340Z,8.80
2018-08-30T01:34:24.795Z,8.90
2018-08-30T01:36:53.256Z,7.63
2018-08-30T01:39:21.681Z,8.17
2018-08-30T01:41:50.150Z,7.17
2018-08-30T01:44:18.604Z,6.83
2018-08-30T01:46:47.064Z,8.00
2018-08-30T01:49:15.531Z,9.80
2018-08-30T01:51:44.005Z,9.87
2018-08-30T01:54:12.482Z,10.43
2018-08-30T01:56:40.944Z,9.33
2018-08-30T01:59:09.408Z,12.13
2018-08-30T02:01:37.888Z,14.23
2018-08-30T02:04:06.689Z,11.63
2018-08-30T02:06:35.172Z,15.13
2018-08-30T02:09:04.448Z,18.83
2018-08-30T02:11:32.952Z,18.73
2018-08-30T02:14:01.417Z,19.00
2018-08-30T02:16:30.456Z,20.20
2018-08-30T02:18:58.946Z,20.57
2018-08-30T02:21:27.424Z,20.77
2018-08-30T02:23:55.878Z,19.93
2018-08-30T02:26:24.328Z,22.03
2018-08-30T02:28:52.803Z,20.10
2018-08-30T02:31:21.289Z,20.83
2018-08-30T02:33:49.763Z,22.20
2018-08-30T02:36:18.251Z,22.70
2018-08-30T02:38:46.755Z,20.83
2018-08-30T02:41:15.215Z,22.77
2018-08-30T02:43:43.687Z,20.00
2018-08-30T02:46:12.150Z,20.90
2018-08-30T02:48:40.611Z,20.43
2018-08-30T02:51:09.409Z,21.77
2018-08-30T02:53:37.876Z,19.23
2018-08-30T02:56:06.346Z,21.90
2018-08-30T02:58:34.904Z,22.43
2018-08-30T03:01:03.372Z,19.50
2018-08-30T03:03:31.914Z,20.30
2018-08-30T03:06:00.378Z,21.63
2018-08-30T03:08:28.874Z,20.87
2018-08-30T03:10:57.332Z,21.10
2018-08-30T03:13:25.848Z,21.73
2018-08-30T03:15:54.303Z,17.20
2018-08-30T03:18:22.779Z,19.57
2018-08-30T03:20:53.567Z,19.93
2018-08-30T03:23:22.056Z,21.27
2018-08-30T03:25:51.083Z,19.30
2018-08-30T03:28:19.525Z,20.90
2018-08-30T03:30:47.997Z,20.70
2018-08-30T03:33:16.460Z,18.27
2018-08-30T03:35:45.039Z,22.83
2018-08-30T03:38:13.482Z,18.40
2018-08-30T03:40:42.445Z,17.57
2018-08-30T03:43:11.521Z,19.00
2018-08-30T03:45:40.237Z,15.97
2018-08-30T03:48:08.751Z,16.20
2018-08-30T03:50:37.198Z,16.00
2018-08-30T03:53:05.692Z,17.30
2018-08-30T03:55:34.214Z,14.80
2018-08-30T03:58:02.670Z,14.67
2018-08-30T04:00:31.127Z,13.20
2018-08-30T04:02:59.578Z,12.50
2018-08-30T04:05:28.048Z,12.57
2018-08-30T04:07:56.563Z,11.83
2018-08-30T04:10:25.040Z,10.90
2018-08-30T04:12:53.525Z,10.20
2018-08-30T04:15:22.022Z,11.10
2018-08-30T04:17:50.481Z,9.80
2018-08-30T04:20:18.948Z,10.03
2018-08-30T04:22:47.510Z,8.60
2018-08-30T04:25:15.952Z,8.33
2018-08-30T04:27:44.396Z,7.57
2018-08-30T04:30:12.867Z,7.27
2018-08-30T04:32:41.314Z,8.20
2018-08-30T04:35:09.759Z,7.63
2018-08-30T04:37:38.227Z,8.63
2018-08-30T04:40:06.701Z,7.80
2018-08-30T04:42:35.160Z,7.87
2018-08-30T04:45:03.635Z,7.10
2018-08-30T04:47:32.165Z,6.80
2018-08-30T04:50:00.618Z,6.17
2018-08-30T04:52:29.060Z,6.47
2018-08-30T04:54:57.521Z,5.33
2018-08-30T04:57:25.965Z,6.43
2018-08-30T04:59:54.408Z,5.93
2018-08-30T05:02:22.896Z,5.83
2018-08-30T05:04:51.381Z,6.97
2018-08-30T05:07:22.217Z,6.70
2018-08-30T05:09:56.744Z,5.63
2018-08-30T05:12:27.408Z,5.17
2018-08-30T05:14:58.197Z,5.87
2018-08-30T05:17:26.765Z,5.47
2018-08-30T05:19:55.297Z,5.17
2018-08-30T05:22:23.739Z,4.70
2018-08-30T05:24:52.180Z,4.47
2018-08-30T05:27:20.617Z,4.93
2018-08-30T05:29:49.121Z,4.03
2018-08-30T05:32:17.585Z,3.90
2018-08-30T05:34:46.137Z,4.00
2018-08-30T05:37:14.568Z,3.97
2018-08-30T05:39:45.936Z,4.23
2018-08-30T05:42:15.737Z,3.70
2018-08-30T05:44:44.245Z,4.27
2018-08-30T05:47:12.623Z,3.27
2018-08-30T05:49:41.076Z,3.30
2018-08-30T05:52:09.517Z,3.17
2018-08-30T05:54:38.012Z,2.87
2018-08-30T05:57:06.478Z,3.30
2018-08-30T05:59:34.920Z,2.90
2018-08-30T06:02:03.581Z,2.97
2018-08-30T06:04:32.008Z,2.97
2018-08-30T06:07:00.418Z,2.70
2018-08-30T06:09:28.849Z,2.60
2018-08-30T06:11:57.283Z,2.90
2018-08-30T06:14:25.704Z,2.87
2018-08-30T06:16:54.117Z,2.70
2018-08-30T06:19:22.560Z,2.90
2018-08-30T06:21:50.976Z,3.83
2018-08-30T06:24:19.411Z,3.13
2018-08-30T06:26:48.061Z,3.00
2018-08-30T06:29:16.566Z,3.00
2018-08-30T06:31:44.960Z,2.60
2018-08-30T06:34:13.383Z,3.20
2018-08-30T06:36:41.851Z,2.93
2018-08-30T06:39:10.294Z,2.93
2018-08-30T06:41:38.792Z,3.03
2018-08-30T06:44:07.228Z,3.20
2018-08-30T06:46:35.668Z,3.07
2018-08-30T06:49:04.108Z,2.50
2018-08-30T06:51:32.583Z,2.50
2018-08-30T06:54:01.031Z,2.23
2018-08-30T06:56:29.576Z,2.50
2018-08-30T06:58:58.036Z,2.20
2018-08-30T07:01:26.536Z,3.03
2018-08-30T07:03:54.931Z,3.07
2018-08-30T07:06:23.373Z,2.10
2018-08-30T07:08:51.787Z,2.47
2018-08-30T07:11:20.405Z,2.50
2018-08-30T07:13:48.835Z,1.93
2018-08-30T07:16:17.283Z,1.87
2018-08-30T07:18:45.720Z,2.40
2018-08-30T07:21:14.214Z,1.80
2018-08-30T07:23:42.593Z,2.90
2018-08-30T07:26:11.032Z,2.33
2018-08-30T07:28:39.578Z,2.73
2018-08-30T07:31:07.998Z,2.40
2018-08-30T07:33:36.492Z,2.80
2018-08-30T07:36:04.936Z,2.20
2018-08-30T07:38:33.384Z,2.67
2018-08-30T07:41:01.788Z,2.33
2018-08-30T07:43:30.215Z,2.90
2018-08-30T07:45:58.627Z,2.50
2018-08-30T07:48:27.060Z,2.57
2018-08-30T07:50:55.544Z,3.67
2018-08-30T07:53:23.909Z,2.97
2018-08-30T07:55:52.348Z,3.20
2018-08-30T07:58:20.780Z,4.40
2018-08-30T08:00:49.444Z,3.73
2018-08-30T08:03:18.972Z,3.60
2018-08-30T08:05:47.412Z,3.53
2018-08-30T08:08:16.098Z,3.73
2018-08-30T08:10:44.643Z,3.90
2018-08-30T08:13:13.108Z,4.00
2018-08-30T08:15:41.536Z,5.17
2018-08-30T08:18:09.952Z,4.63
2018-08-30T08:20:38.516Z,4.87
2018-08-30T08:23:06.960Z,5.30
2018-08-30T08:25:35.405Z,4.93
2018-08-30T08:28:03.843Z,4.53
2018-08-30T08:30:32.282Z,5.00
2018-08-30T08:33:00.693Z,6.93
2018-08-30T08:35:29.115Z,5.40
2018-08-30T08:37:57.525Z,6.47
2018-08-30T08:40:25.960Z,5.23
2018-08-30T08:42:54.545Z,6.33
2018-08-30T08:45:23.006Z,6.13
2018-08-30T08:47:51.491Z,6.20
2018-08-30T08:50:19.885Z,7.30
2018-08-30T08:52:48.337Z,7.20
2018-08-30T08:55:16.812Z,7.30
2018-08-30T08:57:45.237Z,6.67
2018-08-30T09:00:13.696Z,7.70
2018-08-30T09:02:42.104Z,8.00
2018-08-30T09:05:11.053Z,6.97
2018-08-30T09:07:39.527Z,7.73
2018-08-30T09:10:08.204Z,6.93
2018-08-30T09:12:36.625Z,7.63
2018-08-30T09:15:05.145Z,6.70
2018-08-30T09:17:33.579Z,7.40
2018-08-30T09:20:02.025Z,6.80
2018-08-30T09:22:30.472Z,7.17
2018-08-30T09:24:58.950Z,7.70
2018-08-30T09:27:27.388Z,7.27
2018-08-30T09:29:56.482Z,6.83
2018-08-30T09:32:24.999Z,7.53
2018-08-30T09:34:53.472Z,6.40
2018-08-30T09:37:22.010Z,6.90
2018-08-30T09:39:50.439Z,7.00
2018-08-30T09:42:18.876Z,6.70
2018-08-30T09:44:47.297Z,8.47
2018-08-30T09:47:15.728Z,6.80
2018-08-30T09:49:44.178Z,6.53
2018-08-30T09:52:12.641Z,6.90
2018-08-30T09:54:41.065Z,7.53
2018-08-30T09:57:09.715Z,7.13
2018-08-30T09:59:37.919Z,6.80
2018-08-30T10:02:11.895Z,7.73
2018-08-30T10:04:40.390Z,6.30
2018-08-30T10:07:08.780Z,6.80
2018-08-30T10:09:37.261Z,7.90
2018-08-30T10:12:05.736Z,7.50
2018-08-30T10:14:34.216Z,6.93
2018-08-30T10:17:02.684Z,8.37
2018-08-30T10:19:31.145Z,7.50
2018-08-30T10:21:59.596Z,7.57
2018-08-30T10:24:28.027Z,7.40
2018-08-30T10:26:56.436Z,7.50
2018-08-30T10:29:24.873Z,7.67
2018-08-30T10:31:53.305Z,7.70
2018-08-30T10:34:21.772Z,8.57
2018-08-30T10:36:50.272Z,7.70
2018-08-30T10:39:18.677Z,7.83
2018-08-30T10:41:47.112Z,8.53
2018-08-30T10:44:15.536Z,8.67
2018-08-30T10:46:43.955Z,9.27
2018-08-30T10:49:12.388Z,8.70
2018-08-30T10:51:40.800Z,10.00
2018-08-30T10:54:09.283Z,9.60
2018-08-30T10:56:37.723Z,8.27
2018-08-30T10:59:06.182Z,9.37
2018-08-30T11:01:34.661Z,8.70
2018-08-30T11:04:03.167Z,8.47
2018-08-30T11:06:31.653Z,9.80
2018-08-30T11:09:00.143Z,9.37
2018-08-30T11:11:28.564Z,8.40
2018-08-30T11:13:56.995Z,8.20
2018-08-30T11:16:25.470Z,9.77
2018-08-30T11:18:53.931Z,9.83
2018-08-30T11:21:22.363Z,8.77
2018-08-30T11:23:50.825Z,10.63
2018-08-30T11:26:19.256Z,9.10
2018-08-30T11:28:47.675Z,9.17
2018-08-30T11:31:16.171Z,10.87
2018-08-30T11:33:44.618Z,8.97
2018-08-30T11:36:13.084Z,8.70
2018-08-30T11:38:41.837Z,9.70
2018-08-30T11:41:10.317Z,9.60
2018-08-30T11:43:38.768Z,8.50
2018-08-30T11:46:07.289Z,8.53
2018-08-30T11:48:35.780Z,7.87
2018-08-30T11:51:04.361Z,7.70
2018-08-30T11:53:32.787Z,7.70
2018-08-30T11:56:01.978Z,7.97
2018-08-30T11:58:30.411Z,8.40
2018-08-30T12:00:59.101Z,6.90
2018-08-30T12:03:27.502Z,6.70
2018-08-30T12:05:56.032Z,6.23
2018-08-30T12:08:24.491Z,4.43
2018-08-30T12:10:52.999Z,5.40
2018-08-30T12:13:21.352Z,5.83
2018-08-30T12:15:49.832Z,5.40
2018-08-30T12:18:18.304Z,6.20
2018-08-30T12:20:46.889Z,4.60
2018-08-30T12:23:15.208Z,4.90
2018-08-30T12:25:43.661Z,4.80
2018-08-30T12:28:12.108Z,5.60
2018-08-30T12:30:40.579Z,5.87
2018-08-30T12:33:09.486Z,5.50
2018-08-30T12:35:38.024Z,6.20
2018-08-30T12:38:06.526Z,6.03
2018-08-30T12:40:34.965Z,7.00
2018-08-30T12:43:03.725Z,6.50
2018-08-30T12:45:31.883Z,7.13
2018-08-30T12:48:00.345Z,6.50
2018-08-30T12:50:29.282Z,6.70
2018-08-30T12:52:57.708Z,5.83
2018-08-30T12:55:26.169Z,7.57
2018-08-30T12:57:54.677Z,6.90
2018-08-30T13:00:23.097Z,7.07
2018-08-30T13:02:51.615Z,6.67
2018-08-30T13:05:20.071Z,6.63
2018-08-30T13:07:48.604Z,7.20
2018-08-30T13:10:17.234Z,7.27
2018-08-30T13:12:45.678Z,7.40
2018-08-30T13:15:14.163Z,7.10
2018-08-30T13:17:42.594Z,9.33
2018-08-30T13:20:11.017Z,8.27
2018-08-30T13:22:39.751Z,9.00
2018-08-30T13:25:08.175Z,7.60
2018-08-30T13:27:36.480Z,8.80
2018-08-30T13:30:05.629Z,9.53
2018-08-30T13:32:34.074Z,9.30
2018-08-30T13:35:02.742Z,8.73
2018-08-30T13:37:31.183Z,9.07
2018-08-30T13:39:59.560Z,10.50
2018-08-30T13:42:27.996Z,9.80
2018-08-30T13:44:56.677Z,8.50
2018-08-30T13:47:25.027Z,9.40
2018-08-30T13:49:53.261Z,8.77
2018-08-30T13:52:21.960Z,8.53
2018-08-30T13:54:50.337Z,8.53
2018-08-30T13:57:18.931Z,7.63
2018-08-30T13:59:47.430Z,8.07
2018-08-30T14:02:15.700Z,8.83
2018-08-30T14:04:44.079Z,8.80
2018-08-30T14:07:12.663Z,9.33
2018-08-30T14:09:41.071Z,8.87
2018-08-30T14:12:09.775Z,7.53
2018-08-30T14:14:38.019Z,9.50
2018-08-30T14:17:06.245Z,9.37
2018-08-30T14:19:34.689Z,8.03
2018-08-30T14:22:03.219Z,8.63
2018-08-30T14:24:31.820Z,8.80
2018-08-30T14:27:00.208Z,9.20
2018-08-30T14:29:28.547Z,10.43
2018-08-30T14:31:56.957Z,9.90
2018-08-30T14:34:25.402Z,8.70
2018-08-30T14:36:53.838Z,8.30
2018-08-30T14:39:22.299Z,9.13
2018-08-30T14:41:50.855Z,8.07
2018-08-30T14:44:19.193Z,8.67
2018-08-30T14:46:47.991Z,8.53
2018-08-30T14:49:16.424Z,8.77
2018-08-30T14:51:44.912Z,9.13
2018-08-30T14:54:13.402Z,8.60
2018-08-30T14:56:41.837Z,9.90
2018-08-30T14:59:10.297Z,8.40
2018-08-30T15:01:38.736Z,8.67
2018-08-30T15:04:07.347Z,9.07
2018-08-30T15:06:35.647Z,8.97
2018-08-30T15:09:04.441Z,8.30
2018-08-30T15:11:33.001Z,9.10
2018-08-30T15:14:01.342Z,9.63
2018-08-30T15:16:29.780Z,9.07
2018-08-30T15:18:58.180Z,9.60
2018-08-30T15:21:26.652Z,8.60
2018-08-30T15:23:55.064Z,8.47
2018-08-30T15:26:23.552Z,8.37
2018-08-30T15:28:52.002Z,8.10
2018-08-30T15:31:20.459Z,8.47
2018-08-30T15:33:48.927Z,7.93
2018-08-30T15:36:17.409Z,8.13
2018-08-30T15:38:45.846Z,8.30
2018-08-30T15:41:14.345Z,8.73
2018-08-30T15:43:42.755Z,7.33
2018-08-30T15:46:11.193Z,7.17
2018-08-30T15:48:39.759Z,7.53
2018-08-30T15:51:08.166Z,7.27
2018-08-30T15:53:36.627Z,7.37
2018-08-30T15:56:05.144Z,7.80
2018-08-30T15:58:34.480Z,6.30
2018-08-30T16:01:02.895Z,6.87
2018-08-30T16:03:31.440Z,6.97
2018-08-30T16:05:59.880Z,6.70
2018-08-30T16:08:28.315Z,7.00
2018-08-30T16:10:56.725Z,6.70
2018-08-30T16:13:25.151Z,6.50
2018-08-30T16:15:53.567Z,7.60
2018-08-30T16:18:22.008Z,7.40
2018-08-30T16:20:50.426Z,6.70
2018-08-30T16:23:26.751Z,5.90
2018-08-30T16:25:55.307Z,6.07
2018-08-30T16:28:24.597Z,6.10
2018-08-30T16:30:53.045Z,7.23
2018-08-30T16:33:21.573Z,5.73
2018-08-30T16:35:50.076Z,5.53
2018-08-30T16:38:18.527Z,5.70
2018-08-30T16:40:47.216Z,5.77
2018-08-30T16:43:15.640Z,5.13
2018-08-30T16:45:44.588Z,5.77
2018-08-30T16:48:13.011Z,5.03
2018-08-30T16:50:41.471Z,5.10
2018-08-30T16:53:09.922Z,4.40
2018-08-30T16:55:38.422Z,5.90
2018-08-30T16:58:06.841Z,5.20
2018-08-30T17:00:35.291Z,5.17
2018-08-30T17:03:04.001Z,4.23
2018-08-30T17:05:32.458Z,5.47
2018-08-30T17:08:00.873Z,5.07
2018-08-30T17:10:29.327Z,4.37
2018-08-30T17:12:58.284Z,3.60
2018-08-30T17:15:26.718Z,5.30
2018-08-30T17:17:55.365Z,4.60
2018-08-30T17:20:26.339Z,4.30
2018-08-30T17:22:54.769Z,4.60
2018-08-30T17:25:23.217Z,4.67
2018-08-30T17:27:51.622Z,5.47
2018-08-30T17:30:20.076Z,5.83
2018-08-30T17:32:48.493Z,5.03
2018-08-30T17:35:16.924Z,5.20
2018-08-30T17:37:45.340Z,5.70
2018-08-30T17:40:13.776Z,4.93
2018-08-30T17:42:42.196Z,4.73
2018-08-30T17:45:10.702Z,4.83
2018-08-30T17:47:39.123Z,4.63
2018-08-30T17:50:07.768Z,4.33
2018-08-30T17:52:36.216Z,4.20
2018-08-30T17:55:04.696Z,4.57
2018-08-30T17:57:33.136Z,4.10
2018-08-30T18:00:01.616Z,4.00
2018-08-30T18:02:30.061Z,5.00
2018-08-30T18:04:58.664Z,4.30
2018-08-30T18:07:27.096Z,4.40
2018-08-30T18:09:55.515Z,4.57
2018-08-30T18:12:23.953Z,4.60
2018-08-30T18:14:52.364Z,5.27
2018-08-30T18:17:20.803Z,4.30
2018-08-30T18:19:49.220Z,3.77
2018-08-30T18:22:17.640Z,4.60
2018-08-30T18:24:46.584Z,4.00
2018-08-30T18:27:15.040Z,3.80
2018-08-30T18:29:43.509Z,4.23
2018-08-30T18:32:12.051Z,4.70
2018-08-30T18:34:40.468Z,4.00
2018-08-30T18:37:08.901Z,4.70
2018-08-30T18:39:37.335Z,5.00
2018-08-30T18:42:05.832Z,5.17
2018-08-30T18:44:34.260Z,5.10
2018-08-30T18:47:02.709Z,4.83
2018-08-30T18:49:31.185Z,4.70
2018-08-30T18:51:59.660Z,5.57
2018-08-30T18:54:28.103Z,5.53
2018-08-30T18:56:56.536Z,5.07
2018-08-30T18:59:24.983Z,5.43
2018-08-30T19:01:53.488Z,5.47
2018-08-30T19:04:21.845Z,4.90
2018-08-30T19:06:50.258Z,5.37
2018-08-30T19:09:18.683Z,5.43
2018-08-30T19:11:47.085Z,5.47
2018-08-30T19:14:15.528Z,5.10
2018-08-30T19:16:49.320Z,5.17
2018-08-30T19:19:19.922Z,5.57
2018-08-30T19:21:48.356Z,6.07
2018-08-30T19:24:22.112Z,5.20
2018-08-30T19:26:50.843Z,6.60
2018-08-30T19:29:19.674Z,5.13
2018-08-30T19:31:48.151Z,5.87
2018-08-30T19:34:16.744Z,5.83
2018-08-30T19:36:45.126Z,5.20
2018-08-30T19:39:14.874Z,5.90
2018-08-30T19:41:43.985Z,5.57
2018-08-30T19:44:12.414Z,6.47
2018-08-30T19:46:40.850Z,5.93
2018-08-30T19:49:09.281Z,6.53
2018-08-30T19:51:37.719Z,5.97
2018-08-30T19:54:06.222Z,6.50
2018-08-30T19:56:35.224Z,6.20
2018-08-30T19:59:03.947Z,7.20
2018-08-30T20:01:32.396Z,6.00
2018-08-30T20:04:00.845Z,5.97
2018-08-30T20:06:29.333Z,6.50
2018-08-30T20:08:57.756Z,6.27
2018-08-30T20:11:26.302Z,5.30
2018-08-30T20:13:54.726Z,6.13
2018-08-30T20:16:23.157Z,5.40
2018-08-30T20:18:51.568Z,5.93
2018-08-30T20:21:20.037Z,6.37
2018-08-30T20:23:48.449Z,6.13
2018-08-30T20:26:16.888Z,5.90
2018-08-30T20:28:45.287Z,5.50
2018-08-30T20:31:13.748Z,6.30
2018-08-30T20:33:42.161Z,7.20
2018-08-30T20:36:10.611Z,5.60
2018-08-30T20:38:39.056Z,6.67
2018-08-30T20:41:07.541Z,5.60
2018-08-30T20:43:36.041Z,6.17
2018-08-30T20:46:04.492Z,6.67
2018-08-30T20:48:32.957Z,7.10
2018-08-30T20:51:01.393Z,7.10
2018-08-30T20:53:29.899Z,7.07
2018-08-30T20:55:58.300Z,6.20
2018-08-30T20:58:26.747Z,6.70
2018-08-30T21:00:55.165Z,6.20
2018-08-30T21:03:23.619Z,6.63
2018-08-30T21:05:52.033Z,6.37
2018-08-30T21:08:20.490Z,6.00
2018-08-30T21:10:48.904Z,6.77
2018-08-30T21:13:17.452Z,7.17
2018-08-30T21:15:45.904Z,5.97
2018-08-30T21:18:14.398Z,5.93
2018-08-30T21:20:42.832Z,5.90
2018-08-30T21:23:11.316Z,5.87
2018-08-30T21:25:39.840Z,6.33
2018-08-30T21:28:08.336Z,8.07
2018-08-30T21:30:36.788Z,5.70
2018-08-30T21:33:05.475Z,7.07
2018-08-30T21:35:33.919Z,6.50
2018-08-30T21:38:02.385Z,6.40
2018-08-30T21:40:30.796Z,5.67
2018-08-30T21:42:59.268Z,6.40
2018-08-30T21:45:27.676Z,6.80
2018-08-30T21:47:56.099Z,7.13
2018-08-30T21:50:24.536Z,7.80
2018-08-30T21:52:52.992Z,6.57
2018-08-30T21:55:21.475Z,7.97
2018-08-30T21:57:49.892Z,8.50
2018-08-30T22:00:18.405Z,6.23
2018-08-30T22:02:46.854Z,7.30
2018-08-30T22:05:15.289Z,7.10
2018-08-30T22:07:43.709Z,7.00
2018-08-30T22:10:12.240Z,7.47
2018-08-30T22:12:40.662Z,6.87
2018-08-30T22:15:09.097Z,6.63
2018-08-30T22:17:37.544Z,7.80
2018-08-30T22:20:06.013Z,7.80
2018-08-30T22:22:34.500Z,8.30
2018-08-30T22:25:02.931Z,6.90
2018-08-30T22:27:31.352Z,7.23
2018-08-30T22:29:59.812Z,6.53
2018-08-30T22:32:28.215Z,6.70
2018-08-30T22:34:56.627Z,7.97
2018-08-30T22:37:25.041Z,7.30
2018-08-30T22:39:53.473Z,6.80
2018-08-30T22:42:21.881Z,7.37
2018-08-30T22:44:50.308Z,7.03
2018-08-30T22:47:18.716Z,6.20
2018-08-30T22:49:47.264Z,7.17
2018-08-30T22:52:15.663Z,6.83
2018-08-30T22:54:44.208Z,6.93
2018-08-30T22:57:12.610Z,6.67
2018-08-30T22:59:41.024Z,6.60
2018-08-30T23:02:09.461Z,7.07
2018-08-30T23:04:37.874Z,7.53
2018-08-30T23:07:06.328Z,7.80
2018-08-30T23:09:34.894Z,7.30
2018-08-30T23:12:03.361Z,7.80
2018-08-30T23:14:31.767Z,6.50
2018-08-30T23:17:00.739Z,7.17
2018-08-30T23:19:29.164Z,7.27
2018-08-30T23:21:57.601Z,7.07
2018-08-30T23:24:26.015Z,7.80
2018-08-30T23:26:54.470Z,6.43
2018-08-30T23:29:22.896Z,7.00
2018-08-30T23:31:51.352Z,7.43
2018-08-30T23:34:19.768Z,6.97
2018-08-30T23:36:48.211Z,7.70
2018-08-30T23:39:16.636Z,7.17
2018-08-30T23:41:45.057Z,7.80
2018-08-30T23:44:13.485Z,8.17
2018-08-30T23:46:41.955Z,7.50
2018-08-30T23:49:10.420Z,8.17
2018-08-30T23:51:38.919Z,6.40
2018-08-30T23:54:07.432Z,7.50
2018-08-30T23:56:35.878Z,7.80
2018-08-30T23:59:15.487Z,7.80
